createdAt,value
2023-02-12T00:00:21.283Z,4.33
2023-02-12T00:02:38.044Z,4.31
2023-02-12T00:04:54.724Z,4.32
2023-02-12T00:07:11.422Z,4.29
2023-02-12T00:09:27.915Z,4.28
2023-02-12T00:11:44.320Z,4.29
2023-02-12T00:14:02.853Z,4.29
2023-02-12T00:16:19.565Z,4.29
2023-02-12T00:18:35.944Z,4.31
2023-02-12T00:20:52.351Z,4.30
2023-02-12T00:23:08.808Z,4.29
2023-02-12T00:25:25.295Z,4.28
2023-02-12T00:27:41.628Z,4.30
2023-02-12T00:29:58.367Z,4.30
2023-02-12T00:32:15.179Z,4.28
2023-02-12T00:34:31.874Z,4.28
2023-02-12T00:36:48.558Z,4.27
2023-02-12T00:39:05.029Z,4.27
2023-02-12T00:41:21.463Z,4.27
2023-02-12T00:43:38.081Z,4.28
2023-02-12T00:45:55.058Z,4.30
2023-02-12T00:48:11.790Z,4.28
2023-02-12T00:50:30.762Z,4.27
2023-02-12T00:52:48.446Z,4.26
2023-02-12T00:55:05.130Z,4.25
2023-02-12T00:57:21.493Z,4.26
2023-02-12T00:59:37.916Z,4.26
2023-02-12T01:01:54.453Z,4.24
2023-02-12T01:04:10.906Z,4.27
2023-02-12T01:06:27.377Z,4.28
2023-02-12T01:08:44.151Z,4.30
2023-02-12T01:11:00.853Z,4.28
2023-02-12T01:13:17.496Z,4.30
2023-02-12T01:15:34.108Z,4.31
2023-02-12T01:17:50.751Z,4.30
2023-02-12T01:20:07.249Z,4.27
2023-02-12T01:22:23.570Z,4.27
2023-02-12T01:24:39.974Z,4.25
2023-02-12T01:26:56.708Z,4.24
2023-02-12T01:29:13.442Z,4.24
2023-02-12T01:31:29.926Z,4.24
2023-02-12T01:33:46.416Z,4.25
2023-02-12T01:36:02.833Z,4.27
2023-02-12T01:38:19.300Z,4.29
2023-02-12T01:40:35.696Z,4.30
2023-02-12T01:42:52.078Z,4.31
2023-02-12T01:45:08.439Z,4.28
2023-02-12T01:47:24.956Z,4.27
2023-02-12T01:49:41.436Z,4.24
2023-02-12T01:51:58.173Z,4.23
2023-02-12T01:54:14.652Z,4.23
2023-02-12T01:56:31.342Z,4.24
2023-02-12T01:58:48.016Z,4.24
2023-02-12T02:01:04.547Z,4.25
2023-02-12T02:03:21.041Z,4.24
2023-02-12T02:05:37.417Z,4.24
2023-02-12T02:07:55.021Z,4.24
2023-02-12T02:10:11.647Z,4.22
2023-02-12T02:12:27.954Z,4.21
2023-02-12T02:14:44.613Z,4.20
2023-02-12T02:17:01.287Z,4.20
2023-02-12T02:19:17.710Z,4.21
2023-02-12T02:21:34.179Z,4.20
2023-02-12T02:23:50.907Z,4.21
2023-02-12T02:26:07.340Z,4.20
2023-02-12T02:28:23.791Z,4.19
2023-02-12T02:30:40.208Z,4.18
2023-02-12T02:32:56.706Z,4.18
2023-02-12T02:35:13.130Z,4.19
2023-02-12T02:37:29.632Z,4.21
2023-02-12T02:39:46.062Z,4.22
2023-02-12T02:42:02.537Z,4.24
2023-02-12T02:44:19.189Z,4.26
2023-02-12T02:46:35.991Z,4.24
2023-02-12T02:48:52.489Z,4.24
2023-02-12T02:51:09.163Z,4.24
2023-02-12T02:53:25.633Z,4.23
2023-02-12T02:55:42.133Z,4.21
2023-02-12T02:57:58.754Z,4.19
2023-02-12T03:00:15.395Z,4.18
2023-02-12T03:02:31.878Z,4.18
2023-02-12T03:04:48.379Z,4.17
2023-02-12T03:07:04.858Z,4.18
2023-02-12T03:09:21.319Z,4.17
2023-02-12T03:11:38.042Z,4.15
2023-02-12T03:13:54.410Z,4.14
2023-02-12T03:16:11.194Z,4.16
2023-02-12T03:18:27.636Z,4.17
2023-02-12T03:20:44.075Z,4.17
2023-02-12T03:23:00.409Z,4.17
2023-02-12T03:25:16.835Z,4.17
2023-02-12T03:27:33.596Z,4.16
2023-02-12T03:29:49.911Z,4.17
2023-02-12T03:32:06.330Z,4.18
2023-02-12T03:34:22.803Z,4.17
2023-02-12T03:36:39.508Z,4.18
2023-02-12T03:38:55.926Z,4.20
2023-02-12T03:41:12.373Z,4.19
2023-02-12T03:43:28.791Z,4.18
2023-02-12T03:45:45.258Z,4.17
2023-02-12T03:48:02.053Z,4.14
2023-02-12T03:50:18.487Z,4.14
2023-02-12T03:52:34.955Z,4.15
2023-02-12T03:54:51.458Z,4.16
2023-02-12T03:57:08.081Z,4.18
2023-02-12T03:59:24.502Z,4.16
2023-02-12T04:01:41.240Z,4.16
2023-02-12T04:03:58.058Z,4.13
2023-02-12T04:06:14.506Z,4.07
2023-02-12T04:08:30.958Z,4.04
2023-02-12T04:10:47.571Z,4.03
2023-02-12T04:13:04.057Z,4.02
2023-02-12T04:15:20.796Z,4.01
2023-02-12T04:17:37.566Z,4.00
2023-02-12T04:19:55.435Z,4.01
2023-02-12T04:22:11.866Z,4.01
2023-02-12T04:24:28.578Z,4.01
2023-02-12T04:26:45.200Z,4.01
2023-02-12T04:29:01.700Z,4.00
2023-02-12T04:31:18.253Z,4.01
2023-02-12T04:33:34.637Z,3.99
2023-02-12T04:35:51.277Z,3.99
2023-02-12T04:38:07.961Z,3.99
2023-02-12T04:40:24.440Z,3.98
2023-02-12T04:42:40.927Z,3.98
2023-02-12T04:44:57.610Z,3.97
2023-02-12T04:47:14.018Z,3.98
2023-02-12T04:49:30.558Z,3.99
2023-02-12T04:51:47.004Z,4.00
2023-02-12T04:54:03.379Z,4.00
2023-02-12T04:56:20.028Z,3.99
2023-02-12T04:58:36.494Z,4.00
2023-02-12T05:00:53.190Z,3.99
2023-02-12T05:03:09.865Z,3.99
2023-02-12T05:05:26.601Z,3.97
2023-02-12T05:07:43.085Z,3.96
2023-02-12T05:09:59.416Z,3.96
2023-02-12T05:12:18.297Z,3.97
2023-02-12T05:14:34.686Z,3.97
2023-02-12T05:16:51.416Z,3.97
2023-02-12T05:19:07.846Z,3.97
2023-02-12T05:21:24.284Z,3.97
2023-02-12T05:23:40.954Z,3.97
2023-02-12T05:25:57.486Z,3.96
2023-02-12T05:28:14.044Z,3.96
2023-02-12T05:30:30.508Z,3.96
2023-02-12T05:32:46.951Z,3.98
2023-02-12T05:35:03.677Z,3.99
2023-02-12T05:37:20.356Z,3.99
2023-02-12T05:39:36.735Z,4.00
2023-02-12T05:41:53.199Z,4.01
2023-02-12T05:44:09.668Z,4.00
2023-02-12T05:46:26.443Z,4.00
2023-02-12T05:48:42.919Z,4.00
2023-02-12T05:50:59.595Z,3.98
2023-02-12T05:53:16.374Z,3.99
2023-02-12T05:55:32.779Z,4.00
2023-02-12T05:57:49.473Z,4.00
2023-02-12T06:00:06.180Z,4.00
2023-02-12T06:02:22.907Z,4.01
2023-02-12T06:04:39.316Z,4.02
2023-02-12T06:06:55.816Z,4.00
2023-02-12T06:09:12.507Z,4.00
2023-02-12T06:11:28.932Z,3.98
2023-02-12T06:13:45.341Z,3.99
2023-02-12T06:16:01.726Z,3.99
2023-02-12T06:18:18.133Z,3.99
2023-02-12T06:20:34.552Z,3.98
2023-02-12T06:22:50.979Z,4.00
2023-02-12T06:25:07.488Z,4.00
2023-02-12T06:27:24.154Z,3.99
2023-02-12T06:29:40.646Z,3.99
2023-02-12T06:31:57.410Z,3.98
2023-02-12T06:34:14.212Z,3.98
2023-02-12T06:36:30.553Z,3.98
2023-02-12T06:38:47.247Z,3.96
2023-02-12T06:41:03.716Z,3.95
2023-02-12T06:43:20.150Z,3.97
2023-02-12T06:45:36.885Z,3.97
2023-02-12T06:47:53.215Z,3.99
2023-02-12T06:50:09.563Z,3.98
2023-02-12T06:52:26.234Z,3.99
2023-02-12T06:54:42.869Z,4.00
2023-02-12T06:56:59.194Z,4.01
2023-02-12T06:59:15.860Z,4.03
2023-02-12T07:01:32.556Z,4.03
2023-02-12T07:03:49.347Z,4.03
2023-02-12T07:06:06.046Z,4.05
2023-02-12T07:08:22.555Z,4.06
2023-02-12T07:10:38.911Z,4.08
2023-02-12T07:12:55.366Z,4.09
2023-02-12T07:15:11.920Z,4.11
2023-02-12T07:17:28.420Z,4.11
2023-02-12T07:19:44.712Z,4.14
2023-02-12T07:22:01.392Z,4.14
2023-02-12T07:24:17.882Z,4.14
2023-02-12T07:26:34.323Z,4.17
2023-02-12T07:28:50.748Z,4.16
2023-02-12T07:31:07.575Z,4.19
2023-02-12T07:33:24.442Z,4.22
2023-02-12T07:35:40.876Z,4.24
2023-02-12T07:37:57.294Z,4.26
2023-02-12T07:40:13.923Z,4.29
2023-02-12T07:42:30.373Z,4.32
2023-02-12T07:44:46.644Z,4.34
2023-02-12T07:47:03.393Z,4.37
2023-02-12T07:49:19.983Z,4.43
2023-02-12T07:51:36.669Z,4.46
2023-02-12T07:53:53.188Z,4.50
2023-02-12T07:56:09.738Z,4.53
2023-02-12T07:58:26.250Z,4.56
2023-02-12T08:00:42.693Z,4.59
2023-02-12T08:02:59.295Z,4.61
2023-02-12T08:05:15.672Z,4.65
2023-02-12T08:07:32.425Z,4.66
2023-02-12T08:09:48.827Z,4.68
2023-02-12T08:12:05.301Z,4.72
2023-02-12T08:14:23.084Z,4.75
2023-02-12T08:16:39.688Z,4.78
2023-02-12T08:19:02.348Z,4.82
2023-02-12T08:21:24.140Z,4.86
2023-02-12T08:23:40.925Z,4.90
2023-02-12T08:25:57.792Z,4.93
2023-02-12T08:28:14.447Z,4.97
2023-02-12T08:30:31.236Z,5.02
2023-02-12T08:32:47.727Z,5.07
2023-02-12T08:35:04.053Z,5.11
2023-02-12T08:37:20.832Z,5.14
2023-02-12T08:39:37.353Z,5.17
2023-02-12T08:41:54.028Z,5.21
2023-02-12T08:44:10.511Z,5.23
2023-02-12T08:46:27.342Z,5.27
2023-02-12T08:48:43.913Z,5.30
2023-02-12T08:51:00.621Z,5.31
2023-02-12T08:53:17.724Z,5.33
2023-02-12T08:55:34.511Z,5.36
2023-02-12T08:57:52.050Z,5.40
2023-02-12T09:00:08.594Z,5.44
2023-02-12T09:02:25.085Z,5.47
2023-02-12T09:04:41.546Z,5.49
2023-02-12T09:06:58.305Z,5.54
2023-02-12T09:09:14.814Z,5.56
2023-02-12T09:11:31.336Z,5.59
2023-02-12T09:13:47.881Z,5.60
2023-02-12T09:16:04.609Z,5.60
2023-02-12T09:18:21.144Z,5.62
2023-02-12T09:20:37.626Z,5.66
2023-02-12T09:22:54.118Z,5.67
2023-02-12T09:25:10.598Z,5.69
2023-02-12T09:27:28.238Z,5.71
2023-02-12T09:29:46.566Z,5.72
2023-02-12T09:32:03.206Z,5.75
2023-02-12T09:34:20.010Z,5.77
2023-02-12T09:36:36.537Z,5.80
2023-02-12T09:38:53.374Z,5.81
2023-02-12T09:41:10.154Z,5.83
2023-02-12T09:43:26.946Z,5.86
2023-02-12T09:45:43.484Z,5.89
2023-02-12T09:47:59.839Z,5.92
2023-02-12T09:50:16.344Z,5.96
2023-02-12T09:52:33.111Z,5.98
2023-02-12T09:54:49.951Z,6.00
2023-02-12T09:57:06.680Z,6.02
2023-02-12T09:59:23.084Z,6.06
2023-02-12T10:01:39.923Z,6.09
2023-02-12T10:03:56.313Z,6.15
2023-02-12T10:06:12.828Z,6.18
2023-02-12T10:08:29.697Z,6.22
2023-02-12T10:10:46.065Z,6.26
2023-02-12T10:13:02.458Z,6.30
2023-02-12T10:15:19.144Z,6.32
2023-02-12T10:17:35.563Z,6.33
2023-02-12T10:19:51.993Z,6.38
2023-02-12T10:22:08.628Z,6.41
2023-02-12T10:24:25.155Z,6.43
2023-02-12T10:26:41.829Z,6.46
2023-02-12T10:28:58.597Z,6.48
2023-02-12T10:31:15.065Z,6.51
2023-02-12T10:33:31.595Z,6.55
2023-02-12T10:35:48.361Z,6.57
2023-02-12T10:38:04.775Z,6.59
2023-02-12T10:40:21.459Z,6.60
2023-02-12T10:42:38.142Z,6.64
2023-02-12T10:44:54.921Z,6.65
2023-02-12T10:47:11.396Z,6.67
2023-02-12T10:49:28.181Z,6.69
2023-02-12T10:51:44.714Z,6.72
2023-02-12T10:54:01.150Z,6.75
2023-02-12T10:56:17.873Z,6.79
2023-02-12T10:58:34.417Z,6.79
2023-02-12T11:00:50.733Z,6.81
2023-02-12T11:03:07.476Z,6.84
2023-02-12T11:05:23.930Z,6.89
2023-02-12T11:07:40.198Z,6.89
2023-02-12T11:09:56.902Z,6.92
2023-02-12T11:12:13.430Z,6.99
2023-02-12T11:14:29.837Z,7.00
2023-02-12T11:16:46.527Z,7.01
2023-02-12T11:19:03.322Z,7.07
2023-02-12T11:21:20.081Z,7.06
2023-02-12T11:23:36.624Z,7.06
2023-02-12T11:25:53.132Z,7.11
2023-02-12T11:28:09.970Z,7.12
2023-02-12T11:30:26.589Z,7.13
2023-02-12T11:32:43.332Z,7.18
2023-02-12T11:35:00.008Z,7.22
2023-02-12T11:37:16.465Z,7.24
2023-02-12T11:39:33.173Z,7.29
2023-02-12T11:41:49.646Z,7.29
2023-02-12T11:44:06.143Z,7.33
2023-02-12T11:46:22.909Z,7.40
2023-02-12T11:48:39.423Z,7.43
2023-02-12T11:50:56.183Z,7.41
2023-02-12T11:53:12.515Z,7.47
2023-02-12T11:55:30.561Z,7.48
2023-02-12T11:57:49.040Z,7.48
2023-02-12T12:00:05.691Z,7.50
2023-02-12T12:02:22.305Z,7.51
2023-02-12T12:04:38.947Z,7.52
2023-02-12T12:06:55.612Z,7.54
2023-02-12T12:09:12.123Z,7.57
2023-02-12T12:11:28.472Z,7.56
2023-02-12T12:13:44.912Z,7.61
2023-02-12T12:16:01.304Z,7.64
2023-02-12T12:18:17.933Z,7.66
2023-02-12T12:20:34.563Z,7.72
2023-02-12T12:22:51.358Z,7.71
2023-02-12T12:25:08.081Z,7.73
2023-02-12T12:27:24.575Z,7.75
2023-02-12T12:29:41.029Z,7.73
2023-02-12T12:31:57.751Z,7.78
2023-02-12T12:34:14.485Z,7.77
2023-02-12T12:36:30.758Z,7.75
2023-02-12T12:38:47.161Z,7.77
2023-02-12T12:41:03.797Z,7.77
2023-02-12T12:43:20.173Z,7.79
2023-02-12T12:45:36.924Z,7.76
2023-02-12T12:47:53.372Z,7.74
2023-02-12T12:50:09.834Z,7.78
2023-02-12T12:52:26.534Z,7.79
2023-02-12T12:54:42.984Z,7.81
2023-02-12T12:56:59.722Z,7.80
2023-02-12T12:59:16.462Z,7.86
2023-02-12T13:01:33.022Z,7.88
2023-02-12T13:03:49.789Z,7.87
2023-02-12T13:06:06.522Z,7.87
2023-02-12T13:08:23.323Z,7.87
2023-02-12T13:10:39.912Z,7.89
2023-02-12T13:12:56.322Z,7.89
2023-02-12T13:15:13.045Z,7.88
2023-02-12T13:17:29.476Z,7.87
2023-02-12T13:19:45.921Z,7.87
2023-02-12T13:22:02.332Z,7.90
2023-02-12T13:24:18.764Z,7.89
2023-02-12T13:26:35.417Z,7.90
2023-02-12T13:28:51.758Z,7.96
2023-02-12T13:31:30.018Z,7.99
2023-02-12T13:33:44.621Z,7.99
2023-02-12T13:36:01.085Z,7.93
2023-02-12T13:38:17.435Z,7.94
2023-02-12T13:40:33.902Z,7.93
2023-02-12T13:42:50.543Z,7.92
2023-02-12T13:45:06.965Z,7.96
2023-02-12T13:47:23.633Z,7.93
2023-02-12T13:49:40.082Z,7.97
2023-02-12T13:51:56.764Z,7.95
2023-02-12T13:54:13.228Z,7.96
2023-02-12T13:56:29.994Z,7.97
2023-02-12T13:58:46.603Z,7.95
2023-02-12T14:01:03.401Z,7.95
2023-02-12T14:03:19.851Z,7.96
2023-02-12T14:05:36.650Z,7.98
2023-02-12T14:07:53.395Z,7.98
2023-02-12T14:10:09.833Z,7.99
2023-02-12T14:12:26.313Z,7.96
2023-02-12T14:14:43.049Z,7.96
2023-02-12T14:16:59.546Z,8.01
2023-02-12T14:19:15.962Z,8.02
2023-02-12T14:21:32.486Z,8.00
2023-02-12T14:23:49.218Z,8.00
2023-02-12T14:26:05.777Z,8.06
2023-02-12T14:28:22.160Z,8.02
2023-02-12T14:30:40.301Z,8.06
2023-02-12T14:32:56.905Z,8.04
2023-02-12T14:35:13.422Z,8.06
2023-02-12T14:37:29.921Z,8.11
2023-02-12T14:39:46.370Z,8.05
2023-02-12T14:42:02.805Z,8.02
2023-02-12T14:44:19.126Z,8.00
2023-02-12T14:46:35.595Z,8.00
2023-02-12T14:48:52.098Z,7.98
2023-02-12T14:51:08.789Z,7.95
2023-02-12T14:53:25.275Z,7.94
2023-02-12T14:55:41.774Z,7.94
2023-02-12T14:57:58.515Z,7.91
2023-02-12T15:00:16.270Z,7.92
2023-02-12T15:02:32.707Z,7.94
2023-02-12T15:04:49.113Z,7.97
2023-02-12T15:07:05.483Z,7.93
2023-02-12T15:09:21.949Z,7.93
2023-02-12T15:11:38.376Z,7.94
2023-02-12T15:13:56.226Z,7.96
2023-02-12T15:16:12.724Z,7.97
2023-02-12T15:18:29.194Z,7.96
2023-02-12T15:20:45.649Z,7.94
2023-02-12T15:23:02.375Z,7.91
2023-02-12T15:25:19.011Z,7.91
2023-02-12T15:27:35.530Z,7.93
2023-02-12T15:29:52.037Z,7.95
2023-02-12T15:32:08.543Z,7.93
2023-02-12T15:34:24.990Z,7.94
2023-02-12T15:36:41.726Z,7.96
2023-02-12T15:38:58.093Z,7.93
2023-02-12T15:41:14.486Z,7.91
2023-02-12T15:43:31.169Z,7.87
2023-02-12T15:45:47.865Z,7.85
2023-02-12T15:48:04.242Z,7.84
2023-02-12T15:50:20.942Z,7.82
2023-02-12T15:52:37.387Z,7.81
2023-02-12T15:54:53.885Z,7.80
2023-02-12T15:57:10.355Z,7.80
2023-02-12T15:59:29.048Z,7.79
2023-02-12T16:01:45.793Z,7.77
2023-02-12T16:04:02.615Z,7.75
2023-02-12T16:06:19.250Z,7.74
2023-02-12T16:08:35.788Z,7.73
2023-02-12T16:10:52.509Z,7.71
2023-02-12T16:13:09.278Z,7.69
2023-02-12T16:15:25.608Z,7.69
2023-02-12T16:17:42.091Z,7.66
2023-02-12T16:19:58.735Z,7.65
2023-02-12T16:22:15.332Z,7.64
2023-02-12T16:24:31.704Z,7.62
2023-02-12T16:26:48.344Z,7.60
2023-02-12T16:29:04.755Z,7.58
2023-02-12T16:31:21.341Z,7.56
2023-02-12T16:33:37.851Z,7.53
2023-02-12T16:35:54.814Z,7.52
2023-02-12T16:38:11.681Z,7.50
2023-02-12T16:40:28.251Z,7.48
2023-02-12T16:42:44.977Z,7.46
2023-02-12T16:45:01.730Z,7.42
2023-02-12T16:47:18.391Z,7.39
2023-02-12T16:49:34.777Z,7.37
2023-02-12T16:51:51.520Z,7.33
2023-02-12T16:54:08.029Z,7.29
2023-02-12T16:56:24.476Z,7.24
2023-02-12T16:58:40.974Z,7.21
2023-02-12T17:00:57.442Z,7.19
2023-02-12T17:03:14.253Z,7.18
2023-02-12T17:05:30.759Z,7.14
2023-02-12T17:07:47.237Z,7.14
2023-02-12T17:10:03.905Z,7.10
2023-02-12T17:12:20.375Z,7.08
2023-02-12T17:14:36.794Z,7.06
2023-02-12T17:16:53.232Z,7.04
2023-02-12T17:19:10.014Z,7.03
2023-02-12T17:21:26.710Z,7.00
2023-02-12T17:23:43.533Z,6.96
2023-02-12T17:26:00.356Z,6.95
2023-02-12T17:28:16.858Z,6.91
2023-02-12T17:30:33.255Z,6.90
2023-02-12T17:32:51.341Z,6.89
2023-02-12T17:35:07.989Z,6.88
2023-02-12T17:37:24.346Z,6.87
2023-02-12T17:39:41.096Z,6.84
2023-02-12T17:41:57.827Z,6.83
2023-02-12T17:44:14.376Z,6.84
2023-02-12T17:46:31.039Z,6.81
2023-02-12T17:48:48.233Z,6.79
2023-02-12T17:51:05.182Z,6.78
2023-02-12T17:53:21.948Z,6.78
2023-02-12T17:55:38.420Z,6.77
2023-02-12T17:57:54.943Z,6.74
2023-02-12T18:00:11.440Z,6.72
2023-02-12T18:02:28.129Z,6.72
2023-02-12T18:04:44.732Z,6.71
2023-02-12T18:07:01.137Z,6.68
2023-02-12T18:09:18.552Z,6.67
2023-02-12T18:11:35.315Z,6.65
2023-02-12T18:13:51.742Z,6.62
2023-02-12T18:16:09.148Z,6.62
2023-02-12T18:18:25.889Z,6.60
2023-02-12T18:20:42.317Z,6.59
2023-02-12T18:22:58.781Z,6.58
2023-02-12T18:25:16.812Z,6.57
2023-02-12T18:27:34.190Z,6.54
2023-02-12T18:29:50.742Z,6.52
2023-02-12T18:32:07.230Z,6.53
2023-02-12T18:34:23.721Z,6.54
2023-02-12T18:36:40.465Z,6.52
2023-02-12T18:38:56.905Z,6.50
2023-02-12T18:41:13.712Z,6.48
2023-02-12T18:43:30.251Z,6.49
2023-02-12T18:45:46.605Z,6.49
2023-02-12T18:48:03.342Z,6.48
2023-02-12T18:50:19.855Z,6.47
2023-02-12T18:52:36.533Z,6.46
2023-02-12T18:54:53.285Z,6.46
2023-02-12T18:57:09.742Z,6.46
2023-02-12T18:59:27.404Z,6.46
2023-02-12T19:01:44.314Z,6.46
2023-02-12T19:04:01.124Z,6.46
2023-02-12T19:06:17.709Z,6.44
2023-02-12T19:08:34.449Z,6.42
2023-02-12T19:10:50.938Z,6.40
2023-02-12T19:13:07.579Z,6.39
2023-02-12T19:15:24.164Z,6.40
2023-02-12T19:17:40.924Z,6.41
2023-02-12T19:19:57.443Z,6.42
2023-02-12T19:22:13.788Z,6.43
2023-02-12T19:24:45.572Z,6.40
2023-02-12T19:27:03.136Z,6.41
2023-02-12T19:29:19.602Z,6.38
2023-02-12T19:31:36.227Z,6.38
2023-02-12T19:33:52.777Z,6.35
2023-02-12T19:36:09.104Z,6.36
2023-02-12T19:38:25.600Z,6.36
2023-02-12T19:40:42.071Z,6.35
2023-02-12T19:42:58.437Z,6.35
2023-02-12T19:45:14.746Z,6.34
2023-02-12T19:47:31.480Z,6.34
2023-02-12T19:49:48.022Z,6.32
2023-02-12T19:52:04.821Z,6.33
2023-02-12T19:54:21.166Z,6.33
2023-02-12T19:56:37.880Z,6.32
2023-02-12T19:58:54.395Z,6.30
2023-02-12T20:01:10.817Z,6.31
2023-02-12T20:03:27.601Z,6.30
2023-02-12T20:05:44.112Z,6.30
2023-02-12T20:08:00.946Z,6.28
2023-02-12T20:10:18.445Z,6.30
2023-02-12T20:12:34.966Z,6.29
2023-02-12T20:14:51.304Z,6.30
2023-02-12T20:17:08.003Z,6.29
2023-02-12T20:19:24.415Z,6.28
2023-02-12T20:21:41.133Z,6.27
2023-02-12T20:23:57.641Z,6.26
2023-02-12T20:26:14.072Z,6.26
2023-02-12T20:28:30.671Z,6.26
2023-02-12T20:30:47.278Z,6.27
2023-02-12T20:33:03.871Z,6.26
2023-02-12T20:35:20.336Z,6.24
2023-02-12T20:37:36.706Z,6.24
2023-02-12T20:39:52.993Z,6.27
2023-02-12T20:42:09.638Z,6.27
2023-02-12T20:44:26.318Z,6.26
2023-02-12T20:46:42.804Z,6.25
2023-02-12T20:48:59.532Z,6.25
2023-02-12T20:51:15.932Z,6.24
2023-02-12T20:53:32.604Z,6.25
2023-02-12T20:55:48.980Z,6.26
2023-02-12T20:58:05.695Z,6.25
2023-02-12T21:00:22.327Z,6.26
2023-02-12T21:02:39.090Z,6.26
2023-02-12T21:04:55.651Z,6.26
2023-02-12T21:07:12.041Z,6.26
2023-02-12T21:09:28.342Z,6.24
2023-02-12T21:11:45.075Z,6.24
2023-02-12T21:14:20.248Z,6.24
2023-02-12T21:16:37.692Z,6.24
2023-02-12T21:18:54.076Z,6.24
2023-02-12T21:21:10.761Z,6.24
2023-02-12T21:23:27.528Z,6.25
2023-02-12T21:25:43.969Z,6.25
2023-02-12T21:28:00.423Z,6.25
2023-02-12T21:30:16.801Z,6.25
2023-02-12T21:32:33.403Z,6.25
2023-02-12T21:34:49.965Z,6.27
2023-02-12T21:37:06.697Z,6.27
2023-02-12T21:39:23.182Z,6.29
2023-02-12T21:41:39.995Z,6.33
2023-02-12T21:43:56.459Z,6.37
2023-02-12T21:46:13.045Z,6.41
2023-02-12T21:48:29.457Z,6.43
2023-02-12T21:50:46.005Z,6.49
2023-02-12T21:53:02.674Z,6.51
2023-02-12T21:55:19.311Z,6.52
2023-02-12T21:57:36.023Z,6.55
2023-02-12T21:59:52.488Z,6.56
2023-02-12T22:02:09.180Z,6.58
2023-02-12T22:04:25.718Z,6.57
2023-02-12T22:06:42.450Z,6.58
2023-02-12T22:08:58.941Z,6.59
2023-02-12T22:11:15.686Z,6.60
2023-02-12T22:13:32.428Z,6.62
2023-02-12T22:15:49.031Z,6.63
2023-02-12T22:18:05.517Z,6.64
2023-02-12T22:20:21.983Z,6.63
2023-02-12T22:22:38.771Z,6.63
2023-02-12T22:24:55.495Z,6.64
2023-02-12T22:27:12.000Z,6.66
2023-02-12T22:29:28.917Z,6.65
2023-02-12T22:31:45.503Z,6.66
2023-02-12T22:34:01.997Z,6.65
2023-02-12T22:36:18.768Z,6.65
2023-02-12T22:38:35.510Z,6.64
2023-02-12T22:40:52.408Z,6.63
2023-02-12T22:43:08.810Z,6.63
2023-02-12T22:45:25.169Z,6.63
2023-02-12T22:47:41.887Z,6.63
2023-02-12T22:49:58.358Z,6.64
2023-02-12T22:52:15.024Z,6.64
2023-02-12T22:54:31.529Z,6.63
2023-02-12T22:56:48.160Z,6.62
2023-02-12T22:59:04.596Z,6.63
2023-02-12T23:01:21.057Z,6.62
2023-02-12T23:03:37.679Z,6.61
2023-02-12T23:05:54.324Z,6.60
2023-02-12T23:08:10.783Z,6.58
2023-02-12T23:10:27.488Z,6.57
2023-02-12T23:12:43.933Z,6.57
2023-02-12T23:15:00.378Z,6.56
2023-02-12T23:17:16.723Z,6.57
2023-02-12T23:19:33.161Z,6.56
2023-02-12T23:21:49.718Z,6.55
2023-02-12T23:24:06.188Z,6.55
2023-02-12T23:26:22.678Z,6.54
2023-02-12T23:28:39.112Z,6.54
2023-02-12T23:30:57.051Z,6.55
2023-02-12T23:33:13.978Z,6.54
2023-02-12T23:35:30.404Z,6.54
2023-02-12T23:37:46.807Z,6.53
2023-02-12T23:40:03.551Z,6.54
2023-02-12T23:42:20.277Z,6.54
2023-02-12T23:44:36.730Z,6.54
2023-02-12T23:46:53.136Z,6.55
2023-02-12T23:49:09.496Z,6.54
2023-02-12T23:51:25.838Z,6.55
2023-02-12T23:53:42.235Z,6.55
2023-02-12T23:55:58.677Z,6.54
2023-02-12T23:58:15.375Z,6.54
